Time;durP1;ratioP1;P1;durP2;ratioP2;P2;SDS_P1;SDS_P2;PMS_P1;PMS_P2;Temp;Humidity;BMP_temperature;BMP_pressure;BME280_temperature;BME280_humidity;BME280_pressure;Samples;Min_cycle;Max_cycle;Signal;HPM_P1;HPM_P2
2023/01/05 00:01:55;;;;;;;1.20;0.65;;;;;;;;;;5062086;28;20048;-76
2023/01/05 00:04:22;;;;;;;1.27;0.73;;;;;;;;;;5072487;28;20048;-76
2023/01/05 00:06:48;;;;;;;1.48;0.60;;;;;;;;;;5052675;28;20041;-75
2023/01/05 00:09:17;;;;;;;1.45;0.50;;;;;;;;;;5052174;28;20091;-75
2023/01/05 00:22:48;;;;;;;10.38;3.60;;;;;;;;;;5054414;28;20055;-74
2023/01/05 00:25:16;;;;;;;1.02;0.68;;;;;;;;;;5058413;28;20064;-74
2023/01/05 00:27:45;;;;;;;3.25;0.50;;;;;;;;;;5069618;28;20072;-75
2023/01/05 00:30:15;;;;;;;0.43;0.32;;;;;;;;;;5061917;28;20076;-73
2023/01/05 00:32:43;;;;;;;1.65;0.60;;;;;;;;;;5054921;28;20098;-76
2023/01/05 00:35:10;;;;;;;1.27;0.63;;;;;;;;;;5058267;28;20123;-75
2023/01/05 00:37:38;;;;;;;1.35;0.70;;;;;;;;;;5061917;28;20041;-76
2023/01/05 00:40:06;;;;;;;0.93;0.47;;;;;;;;;;5059042;28;20045;-76
2023/01/05 00:42:32;;;;;;;1.33;0.40;;;;;;;;;;5052449;28;20081;-76
2023/01/05 00:44:59;;;;;;;0.65;0.30;;;;;;;;;;5052514;28;20085;-76
2023/01/05 00:47:27;;;;;;;0.55;0.40;;;;;;;;;;5053606;28;20087;-76
2023/01/05 00:49:54;;;;;;;0.50;0.40;;;;;;;;;;5052616;28;20083;-76
2023/01/05 00:52:20;;;;;;;1.10;0.43;;;;;;;;;;5054084;28;20099;-76
2023/01/05 00:54:47;;;;;;;1.10;0.60;;;;;;;;;;5055729;28;20510;-76
2023/01/05 00:57:14;;;;;;;1.33;0.50;;;;;;;;;;5071952;28;20079;-76
2023/01/05 00:59:41;;;;;;;0.88;0.50;;;;;;;;;;5076616;28;20104;-76
2023/01/05 01:02:08;;;;;;;1.20;0.70;;;;;;;;;;5064304;28;20052;-76
2023/01/05 01:04:36;;;;;;;0.88;0.38;;;;;;;;;;5064322;28;20040;-77
2023/01/05 01:07:04;;;;;;;1.10;0.60;;;;;;;;;;5076681;28;20515;-76
2023/01/05 01:09:31;;;;;;;1.45;1.23;;;;;;;;;;5076513;28;20045;-76
2023/01/05 01:11:58;;;;;;;1.77;0.50;;;;;;;;;;5073903;28;20072;-77
2023/01/05 01:14:24;;;;;;;1.55;0.60;;;;;;;;;;5075896;28;20453;-77
2023/01/05 01:16:51;;;;;;;1.75;0.70;;;;;;;;;;5076659;28;20132;-75
2023/01/05 01:19:19;;;;;;;1.35;0.40;;;;;;;;;;5072249;28;20458;-76
2023/01/05 01:21:48;;;;;;;1.73;0.40;;;;;;;;;;5054634;28;20102;-76
2023/01/05 01:24:17;;;;;;;0.30;0.30;;;;;;;;;;5056314;28;20048;-77
2023/01/05 01:26:44;;;;;;;0.85;0.40;;;;;;;;;;5057400;28;20083;-77
2023/01/05 01:29:11;;;;;;;1.25;0.50;;;;;;;;;;5060006;28;20099;-77
2023/01/05 01:31:38;;;;;;;0.50;0.30;;;;;;;;;;5076078;28;20430;-76
2023/01/05 01:34:04;;;;;;;0.30;0.30;;;;;;;;;;5076949;28;20053;-77
2023/01/05 01:36:31;;;;;;;0.82;0.38;;;;;;;;;;5056143;28;20053;-77
2023/01/05 01:38:59;;;;;;;0.45;0.30;;;;;;;;;;5055813;28;20045;-76
2023/01/05 01:41:26;;;;;;;0.60;0.30;;;;;;;;;;5056022;28;20507;-75
2023/01/05 01:43:55;;;;;;;0.38;0.30;;;;;;;;;;5054557;28;20088;-76
2023/01/05 01:46:22;;;;;;;0.50;0.30;;;;;;;;;;5055431;28;20076;-77
2023/01/05 01:48:54;;;;;;;1.00;0.40;;;;;;;;;;5054843;28;20488;-77
2023/01/05 01:51:26;;;;;;;0.60;0.30;;;;;;;;;;5054471;28;20148;-76
2023/01/05 01:53:57;;;;;;;0.57;0.40;;;;;;;;;;5053544;28;20053;-75
2023/01/05 01:56:29;;;;;;;0.60;0.40;;;;;;;;;;5062831;28;20119;-77
2023/01/05 01:58:56;;;;;;;0.68;0.40;;;;;;;;;;5073986;28;20045;-77
2023/01/05 02:01:23;;;;;;;0.30;0.28;;;;;;;;;;5059053;28;20080;-76
2023/01/05 02:03:50;;;;;;;0.50;0.30;;;;;;;;;;5052927;28;20085;-76
2023/01/05 02:06:18;;;;;;;0.65;0.38;;;;;;;;;;5072588;28;20080;-77
2023/01/05 02:08:45;;;;;;;0.80;0.50;;;;;;;;;;5073269;28;20055;-76
2023/01/05 02:11:54;;;;;;;1.70;0.40;;;;;;;;;;5062711;28;20084;-76
2023/01/05 02:14:27;;;;;;;0.52;0.30;;;;;;;;;;5070391;28;20050;-76
2023/01/05 02:17:06;;;;;;;0.82;0.30;;;;;;;;;;5073370;28;20049;-75
2023/01/05 02:20:06;;;;;;;0.50;0.30;;;;;;;;;;5059852;28;20055;-76
2023/01/05 02:22:59;;;;;;;0.60;0.30;;;;;;;;;;5020948;28;20063;-76
2023/01/05 02:26:11;;;;;;;1.08;0.30;;;;;;;;;;5072976;28;20051;-76
2023/01/05 02:29:01;;;;;;;0.93;0.40;;;;;;;;;;5057210;28;20419;-75
2023/01/05 02:31:33;;;;;;;0.40;0.30;;;;;;;;;;5073019;28;20462;-76
2023/01/05 02:34:07;;;;;;;1.67;0.40;;;;;;;;;;5061493;28;20053;-76
2023/01/05 02:36:39;;;;;;;1.65;0.40;;;;;;;;;;5056183;28;20525;-75
2023/01/05 02:39:13;;;;;;;0.40;0.35;;;;;;;;;;5057531;28;20045;-75
2023/01/05 02:41:45;;;;;;;0.73;0.40;;;;;;;;;;5052823;28;20059;-74
2023/01/05 02:44:16;;;;;;;0.35;0.30;;;;;;;;;;5064885;28;20045;-76
2023/01/05 02:46:43;;;;;;;1.00;0.50;;;;;;;;;;5071862;28;20048;-76
2023/01/05 02:49:10;;;;;;;0.30;0.30;;;;;;;;;;5065212;28;20494;-75
2023/01/05 02:51:41;;;;;;;0.30;0.22;;;;;;;;;;5072660;28;20051;-76
2023/01/05 02:54:12;;;;;;;0.98;0.30;;;;;;;;;;5062559;28;20056;-76
2023/01/05 02:56:42;;;;;;;1.10;0.60;;;;;;;;;;5053340;28;20428;-76
2023/01/05 02:59:14;;;;;;;0.65;0.40;;;;;;;;;;5061935;28;20393;-75
2023/01/05 03:01:47;;;;;;;1.20;0.50;;;;;;;;;;5053236;28;20575;-75
2023/01/05 03:04:20;;;;;;;0.90;0.38;;;;;;;;;;5060639;28;20426;-77
2023/01/05 03:06:55;;;;;;;1.48;0.60;;;;;;;;;;5054270;28;20646;-77
2023/01/05 03:09:24;;;;;;;0.65;0.40;;;;;;;;;;5062733;28;20041;-77
2023/01/05 03:15:01;;;;;;;1.02;0.47;;;;;;;;;;5012019;28;20046;-78
2023/01/05 03:17:33;;;;;;;2.05;0.40;;;;;;;;;;5008718;28;20038;-77
2023/01/05 03:20:01;;;;;;;0.82;0.38;;;;;;;;;;5039715;28;20097;-75
2023/01/05 03:36:38;;;;;;;0.88;0.50;;;;;;;;;;5072342;28;20517;-76
2023/01/05 03:39:07;;;;;;;0.75;0.40;;;;;;;;;;5059643;28;20045;-76
2023/01/05 03:41:34;;;;;;;0.47;0.40;;;;;;;;;;5056421;28;20419;-76
2023/01/05 03:44:01;;;;;;;1.20;0.50;;;;;;;;;;5051904;28;20408;-76
2023/01/05 03:46:28;;;;;;;0.82;0.60;;;;;;;;;;5052775;28;20045;-76
2023/01/05 03:48:56;;;;;;;1.20;0.52;;;;;;;;;;5064425;28;20152;-75
2023/01/05 03:51:22;;;;;;;0.85;0.43;;;;;;;;;;5058773;28;20045;-75
2023/01/05 03:53:49;;;;;;;1.52;0.50;;;;;;;;;;5063696;28;20049;-77
2023/01/05 03:56:15;;;;;;;0.47;0.40;;;;;;;;;;5072358;28;20070;-76
2023/01/05 03:58:42;;;;;;;0.52;0.40;;;;;;;;;;5071780;28;20052;-76
2023/01/05 04:01:09;;;;;;;0.90;0.40;;;;;;;;;;5063257;28;20090;-74
2023/01/05 04:03:35;;;;;;;0.82;0.50;;;;;;;;;;5071606;28;20044;-76
2023/01/05 04:06:04;;;;;;;0.95;0.60;;;;;;;;;;5055219;28;20061;-75
2023/01/05 04:08:30;;;;;;;2.08;0.57;;;;;;;;;;5071720;28;20048;-76
2023/01/05 04:10:57;;;;;;;1.50;0.50;;;;;;;;;;5066822;28;20052;-76
2023/01/05 04:13:23;;;;;;;1.10;0.50;;;;;;;;;;5054499;28;20049;-75
2023/01/05 04:15:50;;;;;;;0.93;0.50;;;;;;;;;;5054956;28;20499;-76
2023/01/05 04:18:17;;;;;;;0.75;0.50;;;;;;;;;;5070591;28;20048;-77
2023/01/05 04:20:43;;;;;;;3.60;0.60;;;;;;;;;;5069295;28;20048;-77
2023/01/05 04:23:11;;;;;;;0.77;0.45;;;;;;;;;;5058756;28;20041;-76
2023/01/05 04:25:38;;;;;;;1.10;0.60;;;;;;;;;;5052431;28;20680;-75
2023/01/05 04:28:04;;;;;;;1.30;0.57;;;;;;;;;;5055504;28;20528;-76
2023/01/05 04:30:31;;;;;;;1.95;0.73;;;;;;;;;;5056151;28;20518;-76
2023/01/05 04:32:57;;;;;;;2.30;0.57;;;;;;;;;;5073991;28;20045;-76
2023/01/05 04:35:24;;;;;;;2.03;0.65;;;;;;;;;;5063190;28;20059;-75
2023/01/05 04:37:50;;;;;;;2.35;0.82;;;;;;;;;;5055719;28;20052;-75
2023/01/05 04:40:18;;;;;;;2.47;0.52;;;;;;;;;;5057179;28;20048;-75
2023/01/05 04:42:46;;;;;;;1.40;0.57;;;;;;;;;;5061103;28;20422;-75
2023/01/05 04:45:13;;;;;;;2.65;0.60;;;;;;;;;;5055179;28;20041;-76
2023/01/05 04:47:39;;;;;;;0.80;0.52;;;;;;;;;;5063882;28;20074;-76
2023/01/05 04:50:07;;;;;;;1.02;0.60;;;;;;;;;;5074593;28;20055;-76
2023/01/05 04:52:34;;;;;;;0.98;0.60;;;;;;;;;;5070414;28;20049;-76
2023/01/05 04:55:01;;;;;;;1.13;0.52;;;;;;;;;;5055500;28;20049;-75
2023/01/05 04:57:28;;;;;;;1.38;0.63;;;;;;;;;;5055166;28;20047;-76
2023/01/05 04:59:55;;;;;;;1.45;0.68;;;;;;;;;;5054831;28;20051;-74
2023/01/05 05:02:22;;;;;;;2.10;0.88;;;;;;;;;;5062822;28;20041;-75
2023/01/05 05:04:48;;;;;;;1.48;0.75;;;;;;;;;;5062253;28;20044;-76
2023/01/05 05:07:15;;;;;;;1.70;0.80;;;;;;;;;;5055762;28;20051;-76
2023/01/05 05:09:42;;;;;;;1.65;0.77;;;;;;;;;;5054857;28;20059;-76
2023/01/05 05:12:08;;;;;;;1.58;0.60;;;;;;;;;;5064422;28;20041;-76
2023/01/05 05:14:36;;;;;;;1.60;0.80;;;;;;;;;;5072730;28;20059;-77
2023/01/05 05:17:03;;;;;;;1.35;0.77;;;;;;;;;;5074316;28;20041;-76
2023/01/05 05:19:29;;;;;;;1.52;0.60;;;;;;;;;;5074327;28;20052;-76
2023/01/05 05:21:56;;;;;;;2.83;0.90;;;;;;;;;;5061587;28;20049;-76
2023/01/05 05:24:23;;;;;;;2.25;0.70;;;;;;;;;;5074141;28;20496;-76
2023/01/05 05:26:50;;;;;;;2.92;1.00;;;;;;;;;;5074237;28;20055;-76
2023/01/05 05:29:16;;;;;;;1.83;0.80;;;;;;;;;;5074645;28;20106;-74
2023/01/05 05:31:44;;;;;;;2.10;1.00;;;;;;;;;;5067481;28;20123;-75
2023/01/05 05:34:11;;;;;;;2.03;0.80;;;;;;;;;;5074813;28;20144;-74
2023/01/05 05:36:37;;;;;;;1.70;0.70;;;;;;;;;;5074592;28;20495;-76
2023/01/05 05:39:04;;;;;;;1.45;0.80;;;;;;;;;;5076066;28;20044;-76
2023/01/05 05:41:31;;;;;;;1.98;0.90;;;;;;;;;;5068691;28;20049;-76
2023/01/05 05:43:59;;;;;;;1.75;0.80;;;;;;;;;;5065020;28;20051;-76
2023/01/05 05:46:26;;;;;;;1.90;0.80;;;;;;;;;;5057893;28;20049;-76
2023/01/05 05:48:54;;;;;;;1.98;0.80;;;;;;;;;;5058686;28;20053;-75
2023/01/05 05:51:21;;;;;;;1.75;0.77;;;;;;;;;;5075964;28;20041;-75
2023/01/05 05:53:47;;;;;;;2.25;0.90;;;;;;;;;;5065622;28;20051;-75
2023/01/05 05:56:14;;;;;;;2.83;0.77;;;;;;;;;;5055419;28;20411;-76
2023/01/05 05:58:41;;;;;;;1.98;1.10;;;;;;;;;;5054696;28;20067;-75
2023/01/05 06:01:07;;;;;;;2.40;0.90;;;;;;;;;;5054175;28;20044;-76
2023/01/05 06:03:34;;;;;;;2.17;0.88;;;;;;;;;;5061477;28;20048;-76
2023/01/05 06:06:02;;;;;;;2.88;0.90;;;;;;;;;;5071882;28;20048;-76
2023/01/05 06:08:29;;;;;;;1.88;0.80;;;;;;;;;;5074235;28;20060;-76
2023/01/05 06:10:56;;;;;;;1.92;0.80;;;;;;;;;;5059208;28;20048;-75
2023/01/05 06:13:23;;;;;;;1.73;0.70;;;;;;;;;;5071458;28;20056;-76
2023/01/05 06:15:50;;;;;;;2.25;0.80;;;;;;;;;;5067122;28;20049;-76
2023/01/05 06:18:17;;;;;;;2.38;0.95;;;;;;;;;;5073615;28;20055;-75
2023/01/05 06:20:44;;;;;;;2.08;0.90;;;;;;;;;;5061926;28;20049;-76
2023/01/05 06:23:12;;;;;;;1.73;0.98;;;;;;;;;;5058278;28;20495;-75
2023/01/05 06:25:38;;;;;;;3.03;0.93;;;;;;;;;;5068045;28;20049;-75
2023/01/05 06:28:05;;;;;;;5.20;1.00;;;;;;;;;;5073060;28;20044;-75
2023/01/05 06:30:31;;;;;;;1.50;0.77;;;;;;;;;;5073041;22;20125;-75
2023/01/05 06:32:58;;;;;;;2.42;0.90;;;;;;;;;;5041136;28;20575;-75
2023/01/05 06:35:24;;;;;;;1.75;0.80;;;;;;;;;;5041527;28;20081;-75
2023/01/05 06:37:51;;;;;;;2.78;0.98;;;;;;;;;;5033036;28;20045;-75
2023/01/05 06:40:19;;;;;;;3.08;0.95;;;;;;;;;;5038321;28;20478;-75
2023/01/05 06:42:46;;;;;;;2.38;0.93;;;;;;;;;;5052356;28;20487;-75
2023/01/05 06:45:15;;;;;;;1.80;0.80;;;;;;;;;;5052162;28;20389;-75
2023/01/05 06:47:42;;;;;;;1.73;0.82;;;;;;;;;;5052536;28;20041;-75
2023/01/05 06:50:09;;;;;;;2.92;0.88;;;;;;;;;;5052228;28;20051;-75
2023/01/05 06:52:38;;;;;;;2.17;0.70;;;;;;;;;;5054005;28;20053;-75
2023/01/05 06:55:06;;;;;;;1.80;0.65;;;;;;;;;;5052401;28;20118;-75
2023/01/05 06:57:35;;;;;;;1.73;0.70;;;;;;;;;;5052219;28;20426;-75
2023/01/05 07:00:02;;;;;;;1.23;0.70;;;;;;;;;;5052467;28;20049;-75
2023/01/05 07:02:28;;;;;;;2.50;1.00;;;;;;;;;;5052487;28;20056;-75
2023/01/05 07:04:55;;;;;;;3.95;0.93;;;;;;;;;;5052091;28;20072;-75
2023/01/05 07:07:21;;;;;;;2.40;1.00;;;;;;;;;;5052295;28;20540;-75
2023/01/05 07:09:48;;;;;;;3.40;1.00;;;;;;;;;;5051267;28;20051;-75
2023/01/05 07:12:15;;;;;;;2.10;1.00;;;;;;;;;;5052040;28;20049;-75
2023/01/05 07:14:43;;;;;;;2.55;0.93;;;;;;;;;;5052037;28;20474;-75
2023/01/05 07:17:11;;;;;;;2.10;0.93;;;;;;;;;;5052089;28;20037;-75
2023/01/05 07:19:37;;;;;;;1.73;0.80;;;;;;;;;;5051981;28;20521;-75
2023/01/05 07:22:04;;;;;;;2.33;1.27;;;;;;;;;;5051457;28;20041;-75
2023/01/05 07:24:31;;;;;;;2.42;1.10;;;;;;;;;;5051344;28;20059;-75
2023/01/05 07:26:58;;;;;;;1.85;0.85;;;;;;;;;;5052124;28;20047;-75
2023/01/05 07:29:25;;;;;;;2.08;0.80;;;;;;;;;;5051540;28;20052;-75
2023/01/05 07:31:53;;;;;;;3.05;1.15;;;;;;;;;;5051303;28;20045;-75
2023/01/05 07:34:20;;;;;;;1.75;0.57;;;;;;;;;;5051444;28;20574;-75
2023/01/05 07:36:46;;;;;;;2.63;0.80;;;;;;;;;;5051556;28;20056;-75
2023/01/05 07:39:13;;;;;;;3.42;1.20;;;;;;;;;;5051453;28;20041;-75
2023/01/05 07:41:40;;;;;;;1.85;0.90;;;;;;;;;;5042659;28;20128;-75
2023/01/05 07:44:07;;;;;;;3.03;0.93;;;;;;;;;;5051448;28;20047;-75
2023/01/05 07:46:33;;;;;;;2.60;0.85;;;;;;;;;;5051351;28;20110;-75
2023/01/05 07:49:02;;;;;;;2.58;0.90;;;;;;;;;;5051604;28;20052;-75
2023/01/05 07:51:29;;;;;;;2.70;1.30;;;;;;;;;;5051789;28;20049;-75
2023/01/05 07:53:56;;;;;;;2.85;1.00;;;;;;;;;;5051176;28;20049;-75
2023/01/05 07:56:23;;;;;;;3.65;1.00;;;;;;;;;;5053122;28;20045;-75
2023/01/05 07:58:49;;;;;;;2.95;0.88;;;;;;;;;;5051945;28;20055;-75
2023/01/05 08:01:17;;;;;;;2.53;0.90;;;;;;;;;;5052071;28;20045;-75
2023/01/05 08:03:44;;;;;;;2.00;0.85;;;;;;;;;;5055536;28;20103;-75
2023/01/05 08:06:13;;;;;;;5.55;1.75;;;;;;;;;;5056961;28;20048;-75
2023/01/05 08:08:40;;;;;;;5.70;1.45;;;;;;;;;;5058586;28;20496;-75
2023/01/05 08:11:08;;;;;;;1.80;0.70;;;;;;;;;;5052805;28;20060;-76
2023/01/05 08:16:19;;;;;;;1.60;0.77;;;;;;;;;;5055438;28;20055;-76
2023/01/05 08:18:46;;;;;;;5.55;1.10;;;;;;;;;;5055026;28;20048;-76
2023/01/05 08:21:14;;;;;;;2.22;1.00;;;;;;;;;;5054974;28;20053;-75
2023/01/05 08:23:41;;;;;;;1.13;0.52;;;;;;;;;;5055074;28;20119;-76
2023/01/05 08:26:11;;;;;;;2.00;0.68;;;;;;;;;;5055430;28;20135;-76
2023/01/05 08:28:38;;;;;;;2.22;0.93;;;;;;;;;;5055335;28;20114;-76
2023/01/05 08:31:07;;;;;;;2.90;0.77;;;;;;;;;;5050214;28;20414;-75
2023/01/05 08:33:33;;;;;;;1.33;0.60;;;;;;;;;;5051627;28;20565;-75
2023/01/05 08:36:00;;;;;;;3.78;0.95;;;;;;;;;;5055228;28;20124;-75
2023/01/05 08:38:28;;;;;;;2.28;0.90;;;;;;;;;;5062446;28;20444;-76
2023/01/05 08:40:58;;;;;;;1.00;0.60;;;;;;;;;;5062631;28;20201;-76
2023/01/05 08:43:25;;;;;;;3.13;1.13;;;;;;;;;;5061270;28;20061;-76
2023/01/05 08:45:51;;;;;;;1.35;0.70;;;;;;;;;;5059079;28;20041;-76
2023/01/05 08:48:18;;;;;;;1.95;1.00;;;;;;;;;;5059828;28;20128;-76
2023/01/05 08:50:45;;;;;;;2.13;0.90;;;;;;;;;;5056083;28;20141;-75
2023/01/05 08:53:11;;;;;;;2.15;0.85;;;;;;;;;;5051453;28;20048;-75
2023/01/05 08:55:39;;;;;;;2.55;0.80;;;;;;;;;;5055784;28;20117;-75
2023/01/05 08:58:06;;;;;;;4.68;1.48;;;;;;;;;;5053097;28;20590;-75
2023/01/05 09:00:33;;;;;;;2.75;1.00;;;;;;;;;;5052704;28;20049;-75
2023/01/05 09:03:00;;;;;;;2.30;0.90;;;;;;;;;;5052228;28;20149;-75
2023/01/05 09:05:26;;;;;;;2.25;0.80;;;;;;;;;;5052909;28;20049;-74
2023/01/05 09:07:53;;;;;;;2.15;1.20;;;;;;;;;;5052711;28;20047;-75
2023/01/05 09:10:20;;;;;;;4.40;0.90;;;;;;;;;;5052726;28;20051;-75
2023/01/05 09:12:48;;;;;;;2.25;0.90;;;;;;;;;;5052109;28;20124;-75
2023/01/05 09:15:14;;;;;;;3.60;1.00;;;;;;;;;;5052555;28;20415;-75
2023/01/05 09:17:41;;;;;;;2.50;1.05;;;;;;;;;;5052572;28;20049;-75
2023/01/05 09:20:09;;;;;;;4.55;1.10;;;;;;;;;;5052587;28;20606;-74
2023/01/05 09:22:35;;;;;;;2.63;1.15;;;;;;;;;;5052412;28;20129;-75
2023/01/05 09:25:03;;;;;;;3.33;1.10;;;;;;;;;;5052400;28;20041;-75
2023/01/05 09:27:30;;;;;;;3.60;1.25;;;;;;;;;;5052716;28;20049;-75
2023/01/05 09:29:58;;;;;;;2.15;0.90;;;;;;;;;;5052277;28;20133;-74
2023/01/05 09:32:24;;;;;;;3.65;1.30;;;;;;;;;;5052243;28;20045;-72
2023/01/05 09:34:51;;;;;;;2.33;1.10;;;;;;;;;;5052151;28;20419;-76
2023/01/05 09:37:18;;;;;;;2.58;1.05;;;;;;;;;;5052840;28;20563;-75
2023/01/05 09:39:44;;;;;;;3.22;1.20;;;;;;;;;;5052134;28;20452;-75
2023/01/05 09:42:16;;;;;;;5.25;1.10;;;;;;;;;;5051635;28;20049;-74
2023/01/05 09:44:46;;;;;;;2.70;1.08;;;;;;;;;;5052243;28;20049;-74
2023/01/05 09:47:18;;;;;;;1.58;0.90;;;;;;;;;;5051861;28;20151;-74
2023/01/05 09:49:47;;;;;;;2.22;1.00;;;;;;;;;;5052333;28;20473;-74
2023/01/05 09:52:14;;;;;;;2.83;1.00;;;;;;;;;;5051483;28;20051;-74
2023/01/05 09:54:41;;;;;;;3.00;0.70;;;;;;;;;;5052325;28;20056;-78
2023/01/05 09:57:16;;;;;;;2.28;0.90;;;;;;;;;;5052755;28;20045;-74
2023/01/05 09:59:44;;;;;;;2.08;1.00;;;;;;;;;;5052829;28;20052;-78
2023/01/05 10:02:20;;;;;;;2.17;0.90;;;;;;;;;;5060514;28;20160;-77
2023/01/05 10:04:48;;;;;;;2.95;1.02;;;;;;;;;;5059732;28;20136;-84
2023/01/05 10:07:30;;;;;;;2.03;0.90;;;;;;;;;;5054979;28;20055;-75
2023/01/05 10:10:01;;;;;;;3.53;0.80;;;;;;;;;;5051721;28;20057;-75
2023/01/05 10:15:21;;;;;;;1.90;0.90;;;;;;;;;;5051602;28;20171;-75
2023/01/05 10:17:49;;;;;;;3.28;1.50;;;;;;;;;;5051979;28;20044;-74
2023/01/05 10:20:18;;;;;;;2.00;0.82;;;;;;;;;;5051945;28;20045;-75
2023/01/05 10:22:53;;;;;;;4.15;1.00;;;;;;;;;;5051624;28;20128;-74
2023/01/05 10:25:23;;;;;;;2.28;0.90;;;;;;;;;;5051215;28;20131;-74
2023/01/05 10:27:56;;;;;;;2.97;0.82;;;;;;;;;;5051495;28;20063;-75
2023/01/05 10:30:25;;;;;;;3.05;1.30;;;;;;;;;;5051653;28;20041;-73
2023/01/05 10:32:58;;;;;;;3.38;1.02;;;;;;;;;;5053080;28;20128;-73
2023/01/05 10:35:52;;;;;;;3.03;1.00;;;;;;;;;;5053327;28;20049;-74
2023/01/05 10:38:31;;;;;;;2.00;0.80;;;;;;;;;;5052474;28;20044;-74
2023/01/05 10:41:10;;;;;;;3.83;1.27;;;;;;;;;;5052458;28;20136;-75
2023/01/05 10:43:52;;;;;;;2.42;1.17;;;;;;;;;;5052070;28;20056;-75
2023/01/05 10:46:20;;;;;;;3.35;1.00;;;;;;;;;;5051567;28;20041;-76
2023/01/05 10:48:48;;;;;;;3.88;1.27;;;;;;;;;;5051823;28;20565;-74
2023/01/05 10:51:14;;;;;;;2.28;1.15;;;;;;;;;;5051439;28;20043;-74
2023/01/05 10:53:42;;;;;;;2.90;1.10;;;;;;;;;;5050933;28;20136;-74
2023/01/05 10:56:14;;;;;;;3.65;1.30;;;;;;;;;;5051232;28;20060;-74
2023/01/05 10:58:42;;;;;;;2.35;0.88;;;;;;;;;;5051384;28;20051;-74
2023/01/05 11:01:26;;;;;;;2.80;1.05;;;;;;;;;;5051212;28;20123;-74
2023/01/05 11:03:56;;;;;;;3.60;1.30;;;;;;;;;;5051276;28;20049;-75
2023/01/05 11:06:26;;;;;;;3.08;1.13;;;;;;;;;;5051464;28;20500;-75
2023/01/05 11:08:54;;;;;;;2.38;1.00;;;;;;;;;;5050868;28;20583;-75
2023/01/05 11:11:23;;;;;;;3.15;1.27;;;;;;;;;;5050820;28;20076;-74
2023/01/05 11:13:52;;;;;;;2.70;1.45;;;;;;;;;;5047877;28;20056;-75
2023/01/05 11:16:21;;;;;;;4.38;1.10;;;;;;;;;;5051131;28;20048;-75
2023/01/05 11:18:51;;;;;;;3.50;1.25;;;;;;;;;;5050769;28;20041;-74
2023/01/05 11:21:21;;;;;;;3.38;1.70;;;;;;;;;;5050531;28;20045;-74
2023/01/05 11:23:49;;;;;;;1.90;0.90;;;;;;;;;;5052585;28;20051;-76
2023/01/05 11:26:47;;;;;;;2.78;0.90;;;;;;;;;;5054362;28;20508;-76
2023/01/05 11:29:16;;;;;;;3.92;1.33;;;;;;;;;;5039331;28;20067;-75
2023/01/05 11:31:47;;;;;;;3.25;1.25;;;;;;;;;;5050317;28;20113;-74
2023/01/05 11:34:24;;;;;;;2.10;1.02;;;;;;;;;;5051216;28;20072;-74
2023/01/05 11:36:55;;;;;;;1.63;0.80;;;;;;;;;;5051011;28;20061;-75
2023/01/05 11:39:27;;;;;;;1.17;0.70;;;;;;;;;;5056787;28;20044;-75
2023/01/05 11:42:16;;;;;;;1.63;0.70;;;;;;;;;;5055372;28;20127;-75
2023/01/05 11:44:47;;;;;;;2.42;0.75;;;;;;;;;;5038395;28;20041;-74
2023/01/05 11:47:22;;;;;;;2.50;0.82;;;;;;;;;;5051732;28;20055;-74
2023/01/05 11:49:50;;;;;;;3.08;0.80;;;;;;;;;;5050509;28;20051;-75
2023/01/05 11:52:28;;;;;;;2.20;0.77;;;;;;;;;;5050243;28;20436;-75
2023/01/05 11:54:54;;;;;;;2.00;0.95;;;;;;;;;;5049930;28;20450;-74
2023/01/05 11:57:22;;;;;;;1.35;0.68;;;;;;;;;;5050464;28;20041;-75
2023/01/05 11:59:50;;;;;;;1.40;0.80;;;;;;;;;;5050432;28;20056;-74
2023/01/05 12:02:43;;;;;;;1.33;0.70;;;;;;;;;;5050224;28;20053;-75
2023/01/05 12:05:30;;;;;;;1.80;0.70;;;;;;;;;;5049982;28;20043;-74
2023/01/05 12:08:06;;;;;;;3.65;1.30;;;;;;;;;;5053960;28;20053;-76
2023/01/05 12:10:57;;;;;;;2.45;0.80;;;;;;;;;;5054372;28;20107;-74
2023/01/05 12:13:47;;;;;;;3.97;1.00;;;;;;;;;;5049294;28;20483;-74
2023/01/05 12:16:31;;;;;;;1.45;0.80;;;;;;;;;;5049630;28;20131;-73
2023/01/05 12:19:29;;;;;;;3.28;1.20;;;;;;;;;;5049881;28;20065;-73
2023/01/05 12:22:16;;;;;;;2.67;1.45;;;;;;;;;;5049947;28;20124;-76
2023/01/05 12:24:56;;;;;;;2.47;1.20;;;;;;;;;;5045925;28;20144;-74
2023/01/05 12:27:33;;;;;;;1.42;0.90;;;;;;;;;;5051849;28;20132;-74
2023/01/05 12:30:20;;;;;;;2.20;1.02;;;;;;;;;;5049748;28;20053;-74
2023/01/05 12:33:06;;;;;;;2.95;1.15;;;;;;;;;;5049674;28;20052;-74
2023/01/05 12:36:07;;;;;;;2.65;1.20;;;;;;;;;;5062582;22;20128;-84
2023/01/05 12:38:58;;;;;;;4.95;1.45;;;;;;;;;;5051483;28;20125;-83
2023/01/05 12:41:55;;;;;;;3.20;1.20;;;;;;;;;;5040497;28;20130;-84
2023/01/05 12:44:49;;;;;;;3.40;1.27;;;;;;;;;;5052559;28;20053;-84
2023/01/05 12:47:47;;;;;;;2.03;1.13;;;;;;;;;;5054053;28;20049;-85
2023/01/05 12:50:25;;;;;;;2.63;1.00;;;;;;;;;;5021634;28;20634;-84
2023/01/05 12:52:58;;;;;;;2.17;1.00;;;;;;;;;;5028461;28;20112;-84
2023/01/05 12:55:31;;;;;;;7.47;1.73;;;;;;;;;;5061179;28;20049;-84
2023/01/05 12:58:04;;;;;;;2.72;1.10;;;;;;;;;;5065875;28;20084;-83
2023/01/05 13:00:40;;;;;;;1.50;0.82;;;;;;;;;;5038801;28;20125;-83
2023/01/05 13:03:14;;;;;;;2.03;0.88;;;;;;;;;;5058022;28;20052;-85
2023/01/05 13:05:46;;;;;;;3.13;1.00;;;;;;;;;;5061030;28;20128;-82
2023/01/05 13:08:17;;;;;;;3.25;1.20;;;;;;;;;;5060334;28;20150;-83
2023/01/05 13:10:49;;;;;;;2.47;0.98;;;;;;;;;;5039662;28;20077;-83
2023/01/05 13:13:23;;;;;;;2.47;0.88;;;;;;;;;;5041386;28;20049;-83
2023/01/05 13:15:56;;;;;;;2.42;1.10;;;;;;;;;;5039607;28;20069;-84
2023/01/05 13:18:25;;;;;;;3.97;1.20;;;;;;;;;;5039661;28;20136;-84
2023/01/05 13:20:55;;;;;;;3.90;1.23;;;;;;;;;;5053608;28;20140;-83
2023/01/05 13:23:27;;;;;;;8.30;3.45;;;;;;;;;;5039825;28;20128;-83
2023/01/05 13:25:58;;;;;;;4.57;1.00;;;;;;;;;;5056994;28;20091;-82
2023/01/05 13:28:26;;;;;;;2.75;1.20;;;;;;;;;;5059905;28;20072;-84
2023/01/05 13:31:16;;;;;;;2.90;1.05;;;;;;;;;;5061037;28;20045;-83
2023/01/05 13:33:58;;;;;;;2.10;1.00;;;;;;;;;;5065569;28;20038;-84
2023/01/05 13:36:37;;;;;;;5.13;1.00;;;;;;;;;;5034265;28;20080;-84
2023/01/05 13:39:28;;;;;;;2.33;1.00;;;;;;;;;;5052683;28;20124;-83
2023/01/05 13:42:15;;;;;;;3.97;1.02;;;;;;;;;;5040941;28;20128;-83
2023/01/05 13:45:09;;;;;;;2.83;1.55;;;;;;;;;;5040719;28;20129;-82
2023/01/05 13:47:59;;;;;;;2.58;1.00;;;;;;;;;;5039834;28;20076;-82
2023/01/05 13:50:51;;;;;;;2.45;0.90;;;;;;;;;;5020851;28;20052;-82
2023/01/05 13:53:19;;;;;;;8.07;2.03;;;;;;;;;;5030682;28;20680;-83
2023/01/05 13:55:51;;;;;;;5.90;2.38;;;;;;;;;;5052494;28;20045;-83
2023/01/05 13:58:34;;;;;;;7.65;2.85;;;;;;;;;;5040289;28;20463;-82
2023/01/05 14:01:03;;;;;;;4.65;2.15;;;;;;;;;;5044317;28;20056;-83
2023/01/05 14:03:34;;;;;;;5.30;2.10;;;;;;;;;;5043325;28;20068;-84
2023/01/05 14:06:04;;;;;;;8.88;2.78;;;;;;;;;;5046789;28;20128;-83
2023/01/05 14:08:33;;;;;;;11.90;4.32;;;;;;;;;;5042636;28;20057;-84
2023/01/05 14:11:13;;;;;;;8.65;2.95;;;;;;;;;;5027096;28;20080;-81
2023/01/05 14:13:46;;;;;;;8.85;3.45;;;;;;;;;;5036755;28;20124;-82
2023/01/05 14:16:52;;;;;;;10.57;3.63;;;;;;;;;;5034190;28;20133;-80
2023/01/05 14:19:22;;;;;;;11.38;3.60;;;;;;;;;;5036655;28;20789;-81
2023/01/05 14:22:20;;;;;;;7.30;3.33;;;;;;;;;;5043586;28;20055;-82
2023/01/05 14:24:47;;;;;;;10.30;3.25;;;;;;;;;;5057578;28;20132;-83
2023/01/05 14:27:15;;;;;;;9.30;3.30;;;;;;;;;;5046799;28;20478;-82
2023/01/05 14:30:21;;;;;;;8.82;3.33;;;;;;;;;;5037048;28;20137;-83
2023/01/05 14:32:53;;;;;;;8.15;2.70;;;;;;;;;;5037648;28;20061;-82
2023/01/05 14:35:28;;;;;;;13.70;3.75;;;;;;;;;;5035960;28;20671;-82
2023/01/05 14:37:59;;;;;;;11.20;4.10;;;;;;;;;;5050413;28;20518;-83
2023/01/05 14:40:33;;;;;;;9.82;3.40;;;;;;;;;;5038980;28;20085;-85
2023/01/05 14:43:03;;;;;;;14.23;4.13;;;;;;;;;;5015302;28;20060;-83
2023/01/05 14:45:31;;;;;;;9.18;3.25;;;;;;;;;;5015858;28;20072;-82
2023/01/05 14:48:02;;;;;;;10.35;3.78;;;;;;;;;;5016283;28;20080;-84
2023/01/05 14:50:32;;;;;;;16.60;4.40;;;;;;;;;;5029613;28;20045;-80
2023/01/05 14:53:02;;;;;;;12.63;3.90;;;;;;;;;;5035138;28;20083;-84
2023/01/05 14:55:31;;;;;;;11.37;3.70;;;;;;;;;;5032252;28;20314;-81
2023/01/05 14:58:00;;;;;;;17.20;5.05;;;;;;;;;;5033985;28;20073;-81
2023/01/05 15:00:53;;;;;;;12.70;4.18;;;;;;;;;;5012882;28;20053;-82
2023/01/05 15:03:29;;;;;;;11.15;4.40;;;;;;;;;;5028846;28;20053;-80
2023/01/05 15:06:06;;;;;;;9.43;4.05;;;;;;;;;;5045328;28;20412;-82
2023/01/05 15:09:12;;;;;;;14.27;4.50;;;;;;;;;;5035143;28;20576;-84
2023/01/05 15:12:12;;;;;;;11.00;4.50;;;;;;;;;;5034483;28;20137;-80
2023/01/05 15:15:07;;;;;;;13.65;4.03;;;;;;;;;;5048148;28;20541;-82
2023/01/05 15:17:48;;;;;;;13.77;4.13;;;;;;;;;;5049674;28;20119;-80
2023/01/05 15:20:48;;;;;;;21.20;4.25;;;;;;;;;;5034300;28;20081;-80
2023/01/05 15:23:30;;;;;;;13.60;3.78;;;;;;;;;;5034802;28;20637;-80
2023/01/05 15:26:27;;;;;;;8.63;3.85;;;;;;;;;;5035918;28;20132;-80
2023/01/05 15:29:26;;;;;;;12.88;4.18;;;;;;;;;;5004765;28;20125;-80
2023/01/05 15:31:56;;;;;;;12.45;4.53;;;;;;;;;;5028830;28;20041;-81
2023/01/05 15:34:27;;;;;;;9.45;4.70;;;;;;;;;;5029068;28;20069;-80
2023/01/05 15:37:03;;;;;;;11.82;4.88;;;;;;;;;;5017938;28;20739;-79
2023/01/05 15:39:32;;;;;;;13.55;5.32;;;;;;;;;;5033608;28;20064;-80
2023/01/05 15:42:01;;;;;;;14.77;5.18;;;;;;;;;;5035428;28;20117;-79
2023/01/05 15:44:36;;;;;;;10.32;4.93;;;;;;;;;;5040545;28;20053;-80